sensor_id;sensor_type;location;lat;lon;timestamp;pressure;altitude;pressure_sealevel;temperature;humidity
63194;BME280;49289;51.670;5.624;2023-11-21T00:01:01;101213.14;;;16.08;70.82
63194;BME280;49289;51.670;5.624;2023-11-21T00:02:48;101233.47;;;16.17;70.63
63194;BME280;49289;51.670;5.624;2023-11-21T00:04:35;101210.80;;;16.01;70.76
63194;BME280;49289;51.670;5.624;2023-11-21T00:06:22;101215.33;;;15.93;70.89
63194;BME280;49289;51.670;5.624;2023-11-21T00:08:10;101214.88;;;15.95;71.13
63194;BME280;49289;51.670;5.624;2023-11-21T00:09:57;101236.81;;;16.11;70.45
63194;BME280;49289;51.670;5.624;2023-11-21T00:11:44;101219.55;;;15.97;70.06
63194;BME280;49289;51.670;5.624;2023-11-21T00:13:31;101221.61;;;15.83;70.70
63194;BME280;49289;51.670;5.624;2023-11-21T00:15:18;101223.03;;;15.83;70.67
63194;BME280;49289;51.670;5.624;2023-11-21T00:17:06;101225.34;;;15.78;70.28
63194;BME280;49289;51.670;5.624;2023-11-21T00:18:53;101223.75;;;15.74;70.14
63194;BME280;49289;51.670;5.624;2023-11-21T00:20:40;101227.64;;;15.64;69.93
63194;BME280;49289;51.670;5.624;2023-11-21T00:22:27;101250.44;;;15.76;69.93
63194;BME280;49289;51.670;5.624;2023-11-21T00:24:14;101250.23;;;15.68;69.88
63194;BME280;49289;51.670;5.624;2023-11-21T00:26:01;101226.52;;;15.49;69.49
63194;BME280;49289;51.670;5.624;2023-11-21T00:27:48;101224.08;;;15.44;69.40
63194;BME280;49289;51.670;5.624;2023-11-21T00:29:35;101223.63;;;15.38;69.34
63194;BME280;49289;51.670;5.624;2023-11-21T00:31:22;101245.41;;;15.38;69.42
63194;BME280;49289;51.670;5.624;2023-11-21T00:33:09;101221.59;;;15.26;69.14
63194;BME280;49289;51.670;5.624;2023-11-21T00:34:56;101243.86;;;15.30;69.08
63194;BME280;49289;51.670;5.624;2023-11-21T00:36:43;101221.97;;;15.14;69.06
63194;BME280;49289;51.670;5.624;2023-11-21T00:38:30;101246.98;;;15.21;68.84
63194;BME280;49289;51.670;5.624;2023-11-21T00:40:18;101228.73;;;15.04;68.93
63194;BME280;49289;51.670;5.624;2023-11-21T00:42:05;101246.23;;;15.04;69.36
63194;BME280;49289;51.670;5.624;2023-11-21T00:43:50;101224.16;;;14.90;69.12
63194;BME280;49289;51.670;5.624;2023-11-21T00:45:37;101227.10;;;14.79;69.24
63194;BME280;49289;51.670;5.624;2023-11-21T00:47:24;101224.78;;;14.78;69.02
63194;BME280;49289;51.670;5.624;2023-11-21T00:49:11;101230.75;;;14.71;69.16
63194;BME280;49289;51.670;5.624;2023-11-21T00:50:58;101250.69;;;14.82;69.17
63194;BME280;49289;51.670;5.624;2023-11-21T00:52:45;101249.59;;;14.76;69.14
63194;BME280;49289;51.670;5.624;2023-11-21T00:54:32;101248.41;;;14.67;69.42
63194;BME280;49289;51.670;5.624;2023-11-21T00:56:20;101253.55;;;14.60;69.42
63194;BME280;49289;51.670;5.624;2023-11-21T00:58:07;101231.32;;;14.49;69.33
63194;BME280;49289;51.670;5.624;2023-11-21T00:59:54;101228.06;;;14.45;69.42
63194;BME280;49289;51.670;5.624;2023-11-21T01:01:41;101257.22;;;14.54;69.17
63194;BME280;49289;51.670;5.624;2023-11-21T01:03:28;101229.16;;;14.35;69.10
63194;BME280;49289;51.670;5.624;2023-11-21T01:05:15;101267.08;;;14.49;68.90
63194;BME280;49289;51.670;5.624;2023-11-21T01:07:02;101268.87;;;14.48;69.01
63194;BME280;49289;51.670;5.624;2023-11-21T01:08:49;101245.76;;;14.29;68.95
63194;BME280;49289;51.670;5.624;2023-11-21T01:10:36;101267.22;;;14.37;69.24
63194;BME280;49289;51.670;5.624;2023-11-21T01:12:23;101275.50;;;14.38;69.33
63194;BME280;49289;51.670;5.624;2023-11-21T01:14:10;101278.36;;;14.34;69.44
63194;BME280;49289;51.670;5.624;2023-11-21T01:15:57;101282.36;;;14.30;69.31
63194;BME280;49289;51.670;5.624;2023-11-21T01:17:44;101262.06;;;14.19;69.12
63194;BME280;49289;51.670;5.624;2023-11-21T01:19:31;101265.48;;;14.14;69.24
63194;BME280;49289;51.670;5.624;2023-11-21T01:21:19;101264.06;;;14.14;69.45
63194;BME280;49289;51.670;5.624;2023-11-21T01:23:06;101291.37;;;14.28;69.41
63194;BME280;49289;51.670;5.624;2023-11-21T01:24:53;101297.19;;;14.27;69.56
63194;BME280;49289;51.670;5.624;2023-11-21T01:26:40;101298.80;;;14.28;69.73
63194;BME280;49289;51.670;5.624;2023-11-21T01:28:27;101273.83;;;14.18;69.35
63194;BME280;49289;51.670;5.624;2023-11-21T01:30:14;101303.28;;;14.26;69.44
63194;BME280;49289;51.670;5.624;2023-11-21T01:32:01;101300.80;;;14.29;69.63
63194;BME280;49289;51.670;5.624;2023-11-21T01:33:48;101280.05;;;14.08;69.66
63194;BME280;49289;51.670;5.624;2023-11-21T01:35:35;101285.30;;;14.12;69.82
63194;BME280;49289;51.670;5.624;2023-11-21T01:37:22;101303.06;;;14.27;69.39
63194;BME280;49289;51.670;5.624;2023-11-21T01:39:09;101282.58;;;14.10;69.36
63194;BME280;49289;51.670;5.624;2023-11-21T01:40:56;101287.64;;;14.11;69.19
63194;BME280;49289;51.670;5.624;2023-11-21T01:42:44;101289.64;;;14.11;69.55
63194;BME280;49289;51.670;5.624;2023-11-21T01:44:30;101310.72;;;14.24;69.72
63194;BME280;49289;51.670;5.624;2023-11-21T01:46:18;101291.67;;;14.18;69.48
63194;BME280;49289;51.670;5.624;2023-11-21T01:48:05;101315.48;;;14.31;70.05
63194;BME280;49289;51.670;5.624;2023-11-21T01:49:52;101319.23;;;14.37;70.08
63194;BME280;49289;51.670;5.624;2023-11-21T01:51:39;101316.52;;;14.42;70.22
63194;BME280;49289;51.670;5.624;2023-11-21T01:53:25;101311.31;;;14.43;70.49
63194;BME280;49289;51.670;5.624;2023-11-21T01:55:14;101308.90;;;14.50;70.21
63194;BME280;49289;51.670;5.624;2023-11-21T01:57:00;101304.45;;;14.48;70.23
63194;BME280;49289;51.670;5.624;2023-11-21T01:58:47;101271.53;;;14.38;70.53
63194;BME280;49289;51.670;5.624;2023-11-21T02:00:34;101275.42;;;14.42;70.81
63194;BME280;49289;51.670;5.624;2023-11-21T02:02:21;101279.95;;;14.49;70.69
63194;BME280;49289;51.670;5.624;2023-11-21T02:04:09;101279.91;;;14.39;71.37
63194;BME280;49289;51.670;5.624;2023-11-21T02:05:56;101296.66;;;14.55;71.45
63194;BME280;49289;51.670;5.624;2023-11-21T02:07:43;101288.83;;;14.56;71.17
63194;BME280;49289;51.670;5.624;2023-11-21T02:09:30;101312.38;;;14.68;71.96
63194;BME280;49289;51.670;5.624;2023-11-21T02:11:17;101287.70;;;14.69;71.73
63194;BME280;49289;51.670;5.624;2023-11-21T02:13:04;101309.66;;;14.87;71.99
63194;BME280;49289;51.670;5.624;2023-11-21T02:14:51;101298.19;;;14.84;72.18
63194;BME280;49289;51.670;5.624;2023-11-21T02:16:38;101293.59;;;14.91;71.78
63194;BME280;49289;51.670;5.624;2023-11-21T02:18:25;101304.80;;;15.03;71.59
63194;BME280;49289;51.670;5.624;2023-11-21T02:20:13;101301.09;;;14.87;72.43
63194;BME280;49289;51.670;5.624;2023-11-21T02:22:00;101308.30;;;14.73;73.32
63194;BME280;49289;51.670;5.624;2023-11-21T02:23:47;101332.03;;;14.99;73.80
63194;BME280;49289;51.670;5.624;2023-11-21T02:25:34;101333.77;;;15.15;73.27
63194;BME280;49289;51.670;5.624;2023-11-21T02:27:21;101311.52;;;15.03;73.28
63194;BME280;49289;51.670;5.624;2023-11-21T02:29:08;101334.64;;;15.11;74.05
63194;BME280;49289;51.670;5.624;2023-11-21T02:30:55;101333.84;;;15.04;74.65
63194;BME280;49289;51.670;5.624;2023-11-21T02:32:42;101335.44;;;15.10;74.41
63194;BME280;49289;51.670;5.624;2023-11-21T02:34:29;101337.09;;;15.13;74.25
63194;BME280;49289;51.670;5.624;2023-11-21T02:36:17;101336.72;;;15.20;73.96
63194;BME280;49289;51.670;5.624;2023-11-21T02:38:04;101338.94;;;14.50;75.93
63194;BME280;49289;51.670;5.624;2023-11-21T02:39:51;101344.57;;;14.55;77.25
63194;BME280;49289;51.670;5.624;2023-11-21T02:41:39;101343.83;;;14.88;76.29
63194;BME280;49289;51.670;5.624;2023-11-21T02:43:26;101316.78;;;14.98;74.94
63194;BME280;49289;51.670;5.624;2023-11-21T02:45:13;101317.72;;;15.04;74.56
63194;BME280;49289;51.670;5.624;2023-11-21T02:47:00;101347.41;;;14.66;75.89
63194;BME280;49289;51.670;5.624;2023-11-21T02:48:47;101343.80;;;15.00;75.10
63194;BME280;49289;51.670;5.624;2023-11-21T02:50:34;101321.48;;;14.66;75.44
63194;BME280;49289;51.670;5.624;2023-11-21T02:52:21;101347.50;;;14.97;75.03
63194;BME280;49289;51.670;5.624;2023-11-21T02:54:09;101321.70;;;14.97;74.22
63194;BME280;49289;51.670;5.624;2023-11-21T02:55:56;101319.78;;;14.93;74.11
63194;BME280;49289;51.670;5.624;2023-11-21T02:57:43;101348.33;;;15.00;74.17
63194;BME280;49289;51.670;5.624;2023-11-21T02:59:30;101342.77;;;15.06;74.31
63194;BME280;49289;51.670;5.624;2023-11-21T03:01:17;101351.72;;;13.96;76.59
63194;BME280;49289;51.670;5.624;2023-11-21T03:03:04;101351.80;;;13.76;80.92
63194;BME280;49289;51.670;5.624;2023-11-21T03:04:51;101349.70;;;13.74;81.18
63194;BME280;49289;51.670;5.624;2023-11-21T03:06:38;101347.92;;;14.49;78.11
63194;BME280;49289;51.670;5.624;2023-11-21T03:08:25;101347.96;;;14.85;76.15
63194;BME280;49289;51.670;5.624;2023-11-21T03:10:13;101344.64;;;14.93;75.10
63194;BME280;49289;51.670;5.624;2023-11-21T03:12:00;101325.70;;;14.84;74.79
63194;BME280;49289;51.670;5.624;2023-11-21T03:13:47;101349.39;;;15.04;74.77
63194;BME280;49289;51.670;5.624;2023-11-21T03:15:34;101354.82;;;14.96;74.25
63194;BME280;49289;51.670;5.624;2023-11-21T03:17:21;101351.41;;;14.77;75.57
63194;BME280;49289;51.670;5.624;2023-11-21T03:19:08;101356.86;;;14.93;75.03
63194;BME280;49289;51.670;5.624;2023-11-21T03:20:55;101354.04;;;14.95;74.93
63194;BME280;49289;51.670;5.624;2023-11-21T03:22:42;101356.20;;;15.01;74.57
63194;BME280;49289;51.670;5.624;2023-11-21T03:24:29;101355.81;;;15.14;73.85
63194;BME280;49289;51.670;5.624;2023-11-21T03:26:17;101334.85;;;15.16;73.08
63194;BME280;49289;51.670;5.624;2023-11-21T03:28:04;101357.04;;;15.17;73.13
63194;BME280;49289;51.670;5.624;2023-11-21T03:29:51;101337.58;;;14.92;73.28
63194;BME280;49289;51.670;5.624;2023-11-21T03:31:38;101363.97;;;15.24;72.91
63194;BME280;49289;51.670;5.624;2023-11-21T03:33:25;101345.24;;;15.09;72.62
63194;BME280;49289;51.670;5.624;2023-11-21T03:35:12;101365.19;;;15.23;72.40
63194;BME280;49289;51.670;5.624;2023-11-21T03:36:59;101364.89;;;15.24;72.21
63194;BME280;49289;51.670;5.624;2023-11-21T03:38:47;101361.16;;;15.19;72.37
63194;BME280;49289;51.670;5.624;2023-11-21T03:40:33;101342.88;;;15.08;72.31
63194;BME280;49289;51.670;5.624;2023-11-21T03:42:20;101370.14;;;15.15;72.21
63194;BME280;49289;51.670;5.624;2023-11-21T03:44:07;101359.48;;;15.16;72.29
63194;BME280;49289;51.670;5.624;2023-11-21T03:45:54;101370.54;;;15.30;72.03
63194;BME280;49289;51.670;5.624;2023-11-21T03:47:41;101374.27;;;15.22;72.11
63194;BME280;49289;51.670;5.624;2023-11-21T03:49:28;101372.69;;;15.06;72.53
63194;BME280;49289;51.670;5.624;2023-11-21T03:51:16;101373.17;;;15.11;72.62
63194;BME280;49289;51.670;5.624;2023-11-21T03:53:03;101366.22;;;15.17;72.08
63194;BME280;49289;51.670;5.624;2023-11-21T03:54:50;101363.98;;;15.17;72.25
63194;BME280;49289;51.670;5.624;2023-11-21T03:56:37;101346.05;;;15.11;71.97
63194;BME280;49289;51.670;5.624;2023-11-21T03:58:24;101349.09;;;15.05;72.04
63194;BME280;49289;51.670;5.624;2023-11-21T04:00:12;101349.30;;;14.83;72.10
63194;BME280;49289;51.670;5.624;2023-11-21T04:02:00;101375.78;;;14.95;72.56
63194;BME280;49289;51.670;5.624;2023-11-21T04:03:47;101380.97;;;15.07;72.36
63194;BME280;49289;51.670;5.624;2023-11-21T04:05:34;101384.04;;;15.05;72.12
63194;BME280;49289;51.670;5.624;2023-11-21T04:07:21;101378.53;;;15.11;71.70
63194;BME280;49289;51.670;5.624;2023-11-21T04:09:09;101379.83;;;15.00;72.03
63194;BME280;49289;51.670;5.624;2023-11-21T04:10:56;101384.84;;;14.89;72.41
63194;BME280;49289;51.670;5.624;2023-11-21T04:12:42;101384.75;;;14.71;73.27
63194;BME280;49289;51.670;5.624;2023-11-21T04:14:30;101388.02;;;14.78;73.51
63194;BME280;49289;51.670;5.624;2023-11-21T04:16:17;101390.27;;;14.81;72.91
63194;BME280;49289;51.670;5.624;2023-11-21T04:18:04;101395.62;;;14.58;73.37
63194;BME280;49289;51.670;5.624;2023-11-21T04:19:51;101339.01;;;14.28;73.33
63194;BME280;49289;51.670;5.624;2023-11-21T04:21:38;101407.39;;;14.86;72.87
63194;BME280;49289;51.670;5.624;2023-11-21T04:23:25;101406.46;;;14.93;72.23
63194;BME280;49289;51.670;5.624;2023-11-21T04:25:14;101406.36;;;14.95;71.74
63194;BME280;49289;51.670;5.624;2023-11-21T04:27:00;101413.59;;;14.79;72.53
63194;BME280;49289;51.670;5.624;2023-11-21T04:28:47;101409.60;;;14.73;72.51
63194;BME280;49289;51.670;5.624;2023-11-21T04:30:34;101419.62;;;14.55;72.84
63194;BME280;49289;51.670;5.624;2023-11-21T04:32:21;101418.58;;;14.70;72.89
63194;BME280;49289;51.670;5.624;2023-11-21T04:34:08;101421.69;;;14.50;73.58
63194;BME280;49289;51.670;5.624;2023-11-21T04:35:55;101420.50;;;14.63;73.66
63194;BME280;49289;51.670;5.624;2023-11-21T04:37:42;101420.50;;;14.87;72.79
63194;BME280;49289;51.670;5.624;2023-11-21T04:39:29;101425.63;;;14.57;72.93
63194;BME280;49289;51.670;5.624;2023-11-21T04:41:16;101429.06;;;14.38;73.79
63194;BME280;49289;51.670;5.624;2023-11-21T04:43:03;101429.43;;;14.06;75.05
63194;BME280;49289;51.670;5.624;2023-11-21T04:44:50;101407.17;;;13.94;75.83
63194;BME280;49289;51.670;5.624;2023-11-21T04:46:37;101433.86;;;14.46;74.47
63194;BME280;49289;51.670;5.624;2023-11-21T04:48:24;101422.60;;;14.45;74.36
63194;BME280;49289;51.670;5.624;2023-11-21T04:50:12;101433.04;;;14.13;75.63
63194;BME280;49289;51.670;5.624;2023-11-21T04:51:59;101441.15;;;14.34;76.11
63194;BME280;49289;51.670;5.624;2023-11-21T04:53:46;101441.98;;;14.21;75.29
63194;BME280;49289;51.670;5.624;2023-11-21T04:55:33;101422.59;;;14.29;75.46
63194;BME280;49289;51.670;5.624;2023-11-21T04:57:20;101450.72;;;14.22;75.76
63194;BME280;49289;51.670;5.624;2023-11-21T04:59:07;101455.05;;;14.39;74.90
63194;BME280;49289;51.670;5.624;2023-11-21T05:00:54;101452.45;;;14.62;74.17
63194;BME280;49289;51.670;5.624;2023-11-21T05:02:41;101455.52;;;14.82;73.31
63194;BME280;49289;51.670;5.624;2023-11-21T05:04:28;101456.09;;;14.70;73.26
63194;BME280;49289;51.670;5.624;2023-11-21T05:06:15;101458.27;;;14.57;73.94
63194;BME280;49289;51.670;5.624;2023-11-21T05:08:02;101440.96;;;14.42;73.98
63194;BME280;49289;51.670;5.624;2023-11-21T05:09:49;101465.57;;;14.74;73.54
63194;BME280;49289;51.670;5.624;2023-11-21T05:11:37;101446.29;;;14.81;72.68
63194;BME280;49289;51.670;5.624;2023-11-21T05:13:23;101470.55;;;14.89;72.89
63194;BME280;49289;51.670;5.624;2023-11-21T05:15:13;101466.06;;;14.69;73.07
63194;BME280;49289;51.670;5.624;2023-11-21T05:16:58;101453.14;;;14.59;73.27
63194;BME280;49289;51.670;5.624;2023-11-21T05:18:45;101455.04;;;14.82;72.68
63194;BME280;49289;51.670;5.624;2023-11-21T05:20:32;101442.14;;;14.90;72.12
63194;BME280;49289;51.670;5.624;2023-11-21T05:22:19;101461.67;;;14.76;72.62
63194;BME280;49289;51.670;5.624;2023-11-21T05:24:06;101440.52;;;14.79;72.65
63194;BME280;49289;51.670;5.624;2023-11-21T05:25:53;101465.36;;;15.00;72.08
63194;BME280;49289;51.670;5.624;2023-11-21T05:27:40;101465.86;;;15.04;71.86
63194;BME280;49289;51.670;5.624;2023-11-21T05:29:27;101446.41;;;14.89;71.42
63194;BME280;49289;51.670;5.624;2023-11-21T05:31:14;101474.61;;;15.06;71.63
63194;BME280;49289;51.670;5.624;2023-11-21T05:33:01;101476.38;;;14.88;72.14
63194;BME280;49289;51.670;5.624;2023-11-21T05:34:48;101476.77;;;14.95;71.88
63194;BME280;49289;51.670;5.624;2023-11-21T05:36:36;101478.58;;;14.87;71.65
63194;BME280;49289;51.670;5.624;2023-11-21T05:38:23;101485.69;;;15.04;71.53
63194;BME280;49289;51.670;5.624;2023-11-21T05:40:11;101488.39;;;15.06;71.35
63194;BME280;49289;51.670;5.624;2023-11-21T05:41:58;101469.40;;;14.87;71.21
63194;BME280;49289;51.670;5.624;2023-11-21T05:43:45;101490.43;;;14.91;71.67
63194;BME280;49289;51.670;5.624;2023-11-21T05:45:32;101468.66;;;14.73;72.15
63194;BME280;49289;51.670;5.624;2023-11-21T05:47:19;101483.66;;;14.91;71.50
63194;BME280;49289;51.670;5.624;2023-11-21T05:49:06;101494.56;;;14.86;71.53
63194;BME280;49289;51.670;5.624;2023-11-21T05:50:53;101501.37;;;14.92;71.55
63194;BME280;49289;51.670;5.624;2023-11-21T05:52:40;101503.14;;;14.90;71.34
63194;BME280;49289;51.670;5.624;2023-11-21T05:54:28;101506.41;;;14.82;71.64
63194;BME280;49289;51.670;5.624;2023-11-21T05:56:15;101506.89;;;14.70;71.88
63194;BME280;49289;51.670;5.624;2023-11-21T05:58:02;101514.14;;;14.53;72.87
63194;BME280;49289;51.670;5.624;2023-11-21T05:59:49;101514.04;;;14.87;72.04
63194;BME280;49289;51.670;5.624;2023-11-21T06:01:36;101512.13;;;14.76;72.24
63194;BME280;49289;51.670;5.624;2023-11-21T06:03:24;101491.89;;;14.71;71.78
63194;BME280;49289;51.670;5.624;2023-11-21T06:05:11;101523.39;;;14.90;71.54
63194;BME280;49289;51.670;5.624;2023-11-21T06:06:58;101499.31;;;14.52;72.26
63194;BME280;49289;51.670;5.624;2023-11-21T06:08:45;101525.94;;;14.87;72.44
63194;BME280;49289;51.670;5.624;2023-11-21T06:10:32;101530.59;;;15.02;71.83
63194;BME280;49289;51.670;5.624;2023-11-21T06:12:19;101502.69;;;14.92;71.55
63194;BME280;49289;51.670;5.624;2023-11-21T06:14:06;101522.62;;;15.09;71.30
63194;BME280;49289;51.670;5.624;2023-11-21T06:15:53;101497.82;;;14.94;71.42
63194;BME280;49289;51.670;5.624;2023-11-21T06:17:40;101519.95;;;15.03;71.87
63194;BME280;49289;51.670;5.624;2023-11-21T06:19:27;101502.63;;;14.87;72.21
63194;BME280;49289;51.670;5.624;2023-11-21T06:21:14;101533.00;;;15.01;72.43
63194;BME280;49289;51.670;5.624;2023-11-21T06:23:01;101537.84;;;13.76;74.52
63194;BME280;49289;51.670;5.624;2023-11-21T06:24:48;101517.12;;;13.95;76.75
63194;BME280;49289;51.670;5.624;2023-11-21T06:26:35;101515.09;;;14.20;75.96
63194;BME280;49289;51.670;5.624;2023-11-21T06:28:22;101517.19;;;14.41;75.36
63194;BME280;49289;51.670;5.624;2023-11-21T06:30:11;101520.05;;;14.48;75.01
63194;BME280;49289;51.670;5.624;2023-11-21T06:31:57;101535.80;;;14.37;75.30
63194;BME280;49289;51.670;5.624;2023-11-21T06:33:44;101544.59;;;14.73;74.71
63194;BME280;49289;51.670;5.624;2023-11-21T06:35:31;101544.45;;;14.69;74.84
63194;BME280;49289;51.670;5.624;2023-11-21T06:37:18;101547.45;;;14.79;74.53
63194;BME280;49289;51.670;5.624;2023-11-21T06:39:05;101544.70;;;14.88;74.46
63194;BME280;49289;51.670;5.624;2023-11-21T06:40:52;101527.22;;;14.63;74.64
63194;BME280;49289;51.670;5.624;2023-11-21T06:42:39;101549.92;;;14.61;75.21
63194;BME280;49289;51.670;5.624;2023-11-21T06:44:26;101527.55;;;14.54;74.70
63194;BME280;49289;51.670;5.624;2023-11-21T06:46:13;101555.02;;;14.81;74.50
63194;BME280;49289;51.670;5.624;2023-11-21T06:48:00;101530.63;;;14.76;74.32
63194;BME280;49289;51.670;5.624;2023-11-21T06:49:47;101552.88;;;14.97;73.97
63194;BME280;49289;51.670;5.624;2023-11-21T06:51:34;101529.66;;;14.92;73.52
63194;BME280;49289;51.670;5.624;2023-11-21T06:53:21;101534.10;;;14.97;73.45
63194;BME280;49289;51.670;5.624;2023-11-21T06:55:09;101555.08;;;15.18;73.16
63194;BME280;49289;51.670;5.624;2023-11-21T06:56:56;101556.36;;;15.14;73.49
63194;BME280;49289;51.670;5.624;2023-11-21T06:58:43;101561.30;;;15.11;73.56
63194;BME280;49289;51.670;5.624;2023-11-21T07:00:30;101564.64;;;15.00;74.20
63194;BME280;49289;51.670;5.624;2023-11-21T07:02:17;101541.17;;;14.91;74.00
63194;BME280;49289;51.670;5.624;2023-11-21T07:04:04;101564.57;;;15.15;73.51
63194;BME280;49289;51.670;5.624;2023-11-21T07:05:51;101547.45;;;15.12;73.34
63194;BME280;49289;51.670;5.624;2023-11-21T07:07:38;101573.75;;;15.27;73.23
63194;BME280;49289;51.670;5.624;2023-11-21T07:09:25;101579.67;;;15.02;73.77
63194;BME280;49289;51.670;5.624;2023-11-21T07:11:12;101583.13;;;14.76;75.41
63194;BME280;49289;51.670;5.624;2023-11-21T07:12:59;101584.92;;;14.74;75.27
63194;BME280;49289;51.670;5.624;2023-11-21T07:14:46;101587.27;;;14.98;74.93
63194;BME280;49289;51.670;5.624;2023-11-21T07:16:33;101587.76;;;15.06;74.57
63194;BME280;49289;51.670;5.624;2023-11-21T07:18:20;101592.10;;;14.96;74.95
63194;BME280;49289;51.670;5.624;2023-11-21T07:20:07;101567.92;;;14.79;74.67
63194;BME280;49289;51.670;5.624;2023-11-21T07:21:54;101595.09;;;15.11;74.01
63194;BME280;49289;51.670;5.624;2023-11-21T07:23:43;101601.64;;;15.16;74.15
63194;BME280;49289;51.670;5.624;2023-11-21T07:25:31;101577.38;;;15.10;74.04
63194;BME280;49289;51.670;5.624;2023-11-21T07:27:18;101604.10;;;15.15;74.79
63194;BME280;49289;51.670;5.624;2023-11-21T07:29:05;101604.84;;;15.20;74.41
63194;BME280;49289;51.670;5.624;2023-11-21T07:30:52;101612.78;;;15.18;74.40
63194;BME280;49289;51.670;5.624;2023-11-21T07:32:39;101587.75;;;15.11;74.69
63194;BME280;49289;51.670;5.624;2023-11-21T07:34:26;101588.92;;;15.06;74.57
63194;BME280;49289;51.670;5.624;2023-11-21T07:36:14;101590.10;;;15.17;74.35
63194;BME280;49289;51.670;5.624;2023-11-21T07:38:00;101615.42;;;15.37;73.95
63194;BME280;49289;51.670;5.624;2023-11-21T07:39:47;101627.55;;;15.50;73.79
63194;BME280;49289;51.670;5.624;2023-11-21T07:41:34;101633.64;;;15.49;73.79
63194;BME280;49289;51.670;5.624;2023-11-21T07:43:21;101631.48;;;15.51;73.87
63194;BME280;49289;51.670;5.624;2023-11-21T07:45:09;101609.69;;;15.47;73.65
63194;BME280;49289;51.670;5.624;2023-11-21T07:46:56;101636.05;;;15.11;73.95
63194;BME280;49289;51.670;5.624;2023-11-21T07:48:43;101613.48;;;15.14;75.41
63194;BME280;49289;51.670;5.624;2023-11-21T07:50:30;101613.16;;;15.33;74.99
63194;BME280;49289;51.670;5.624;2023-11-21T07:52:17;101616.94;;;15.37;74.56
63194;BME280;49289;51.670;5.624;2023-11-21T07:54:04;101643.31;;;15.51;74.48
63194;BME280;49289;51.670;5.624;2023-11-21T07:55:51;101617.27;;;15.44;74.01
63194;BME280;49289;51.670;5.624;2023-11-21T07:57:39;101642.48;;;15.62;74.01
63194;BME280;49289;51.670;5.624;2023-11-21T07:59:26;101624.44;;;15.51;73.92
63194;BME280;49289;51.670;5.624;2023-11-21T08:01:13;101623.75;;;15.52;73.91
63194;BME280;49289;51.670;5.624;2023-11-21T08:03:00;101646.41;;;15.68;74.03
63194;BME280;49289;51.670;5.624;2023-11-21T08:04:47;101647.81;;;15.57;73.97
63194;BME280;49289;51.670;5.624;2023-11-21T08:06:34;101626.33;;;15.56;73.77
63194;BME280;49289;51.670;5.624;2023-11-21T08:08:21;101649.92;;;15.75;73.75
63194;BME280;49289;51.670;5.624;2023-11-21T08:10:09;101624.31;;;15.61;74.00
63194;BME280;49289;51.670;5.624;2023-11-21T08:11:56;101654.41;;;15.82;73.89
63194;BME280;49289;51.670;5.624;2023-11-21T08:13:43;101656.00;;;15.88;73.82
63194;BME280;49289;51.670;5.624;2023-11-21T08:15:30;101657.52;;;15.83;73.90
63194;BME280;49289;51.670;5.624;2023-11-21T08:17:17;101663.56;;;15.79;73.99
63194;BME280;49289;51.670;5.624;2023-11-21T08:19:04;101642.12;;;15.69;74.12
63194;BME280;49289;51.670;5.624;2023-11-21T08:20:51;101645.84;;;15.83;73.72
63194;BME280;49289;51.670;5.624;2023-11-21T08:22:38;101652.23;;;15.89;73.67
63194;BME280;49289;51.670;5.624;2023-11-21T08:24:25;101655.70;;;15.89;73.76
63194;BME280;49289;51.670;5.624;2023-11-21T08:26:12;101657.02;;;15.88;73.70
63194;BME280;49289;51.670;5.624;2023-11-21T08:27:59;101682.66;;;16.05;73.45
63194;BME280;49289;51.670;5.624;2023-11-21T08:29:46;101661.81;;;15.83;73.52
63194;BME280;49289;51.670;5.624;2023-11-21T08:31:36;101685.88;;;15.95;73.94
63194;BME280;49289;51.670;5.624;2023-11-21T08:33:23;101686.45;;;16.05;73.40
63194;BME280;49289;51.670;5.624;2023-11-21T08:35:10;101687.28;;;16.08;73.26
63194;BME280;49289;51.670;5.624;2023-11-21T08:36:57;101687.09;;;15.78;74.05
63194;BME280;49289;51.670;5.624;2023-11-21T08:38:44;101697.23;;;15.91;74.29
63194;BME280;49289;51.670;5.624;2023-11-21T08:40:31;101674.08;;;15.92;73.59
63194;BME280;49289;51.670;5.624;2023-11-21T08:42:18;101677.44;;;15.98;73.45
63194;BME280;49289;51.670;5.624;2023-11-21T08:44:05;101685.88;;;16.08;73.37
63194;BME280;49289;51.670;5.624;2023-11-21T08:45:52;101710.21;;;16.25;73.40
63194;BME280;49289;51.670;5.624;2023-11-21T08:47:39;101687.62;;;16.01;73.33
63194;BME280;49289;51.670;5.624;2023-11-21T08:49:26;101715.01;;;16.05;73.41
63194;BME280;49289;51.670;5.624;2023-11-21T08:51:13;101714.67;;;16.10;73.17
63194;BME280;49289;51.670;5.624;2023-11-21T08:53:00;101707.03;;;16.14;73.33
63194;BME280;49289;51.670;5.624;2023-11-21T08:54:48;101642.63;;;15.79;73.23
63194;BME280;49289;51.670;5.624;2023-11-21T08:56:34;101717.25;;;16.33;73.10
63194;BME280;49289;51.670;5.624;2023-11-21T08:58:21;101717.18;;;16.42;73.07
63194;BME280;49289;51.670;5.624;2023-11-21T09:00:09;101695.98;;;16.28;73.13
63194;BME280;49289;51.670;5.624;2023-11-21T09:01:56;101693.52;;;16.26;73.33
63194;BME280;49289;51.670;5.624;2023-11-21T09:03:43;101625.07;;;15.94;73.38
63194;BME280;49289;51.670;5.624;2023-11-21T09:05:31;101691.05;;;16.32;73.22
63194;BME280;49289;51.670;5.624;2023-11-21T09:07:18;101718.95;;;16.53;73.18
63194;BME280;49289;51.670;5.624;2023-11-21T09:09:05;101718.78;;;16.47;73.52
63194;BME280;49289;51.670;5.624;2023-11-21T09:10:52;101721.62;;;16.66;73.33
63194;BME280;49289;51.670;5.624;2023-11-21T09:12:39;101726.59;;;16.76;73.08
63194;BME280;49289;51.670;5.624;2023-11-21T09:14:26;101704.05;;;16.63;72.90
63194;BME280;49289;51.670;5.624;2023-11-21T09:16:13;101731.77;;;16.72;72.75
63194;BME280;49289;51.670;5.624;2023-11-21T09:18:00;101739.38;;;16.75;72.71
63194;BME280;49289;51.670;5.624;2023-11-21T09:19:47;101717.06;;;16.24;73.12